Time;durP1;ratioP1;P1;durP2;ratioP2;P2;SDS_P1;SDS_P2;PMS_P1;PMS_P2;Temp;Humidity;BMP_temperature;BMP_pressure;BME280_temperature;BME280_humidity;BME280_pressure;Samples;Min_cycle;Max_cycle;Signal;HPM_P1;HPM_P2
2022/07/04 00:00:20;;;;;;;54.17;33.65;;;20.90;99.90;;;;;;5112313;28;20550;-61
2022/07/04 00:02:47;;;;;;;50.47;33.40;;;20.90;99.90;;;;;;5112243;28;20180;-61
2022/07/04 00:05:13;;;;;;;53.42;33.10;;;20.90;99.90;;;;;;5111141;28;20180;-61
2022/07/04 00:07:40;;;;;;;55.47;32.92;;;20.90;99.90;;;;;;5112250;28;20181;-61
2022/07/04 00:10:08;;;;;;;61.13;34.35;;;20.80;99.90;;;;;;5112040;28;20191;-61
2022/07/04 00:12:34;;;;;;;54.60;32.45;;;20.70;99.90;;;;;;5112022;27;20185;-61
2022/07/04 00:15:01;;;;;;;54.28;34.72;;;20.70;99.90;;;;;;5111571;28;20244;-61
2022/07/04 00:17:26;;;;;;;57.80;34.35;;;20.60;99.90;;;;;;5111954;28;20572;-61
2022/07/04 00:19:52;;;;;;;63.00;35.22;;;20.60;99.90;;;;;;5111815;28;20176;-63
2022/07/04 00:22:18;;;;;;;57.78;35.00;;;20.50;99.90;;;;;;5111932;28;20176;-63
2022/07/04 00:24:44;;;;;;;61.92;35.58;;;20.50;99.90;;;;;;5112099;28;20181;-61
2022/07/04 00:27:09;;;;;;;56.72;34.20;;;20.40;99.90;;;;;;5110242;28;20199;-61
2022/07/04 00:29:35;;;;;;;57.25;34.78;;;20.40;99.90;;;;;;5112476;28;20593;-61
2022/07/04 00:32:02;;;;;;;60.13;35.33;;;20.40;99.90;;;;;;5111502;28;20177;-61
2022/07/04 00:34:28;;;;;;;58.00;34.35;;;20.30;99.90;;;;;;5111727;28;20183;-61
2022/07/04 00:36:54;;;;;;;56.55;34.70;;;20.30;99.90;;;;;;5111370;28;20640;-63
2022/07/04 00:39:19;;;;;;;70.60;34.95;;;20.30;99.90;;;;;;5111881;28;20207;-61
2022/07/04 00:41:45;;;;;;;64.40;34.28;;;20.20;99.90;;;;;;5111921;28;20194;-61
2022/07/04 00:44:13;;;;;;;61.33;34.53;;;20.20;99.90;;;;;;5111619;28;20176;-61
2022/07/04 00:46:39;;;;;;;72.10;36.38;;;20.20;99.90;;;;;;5111662;28;20557;-61
2022/07/04 00:49:06;;;;;;;65.68;35.63;;;20.20;99.90;;;;;;5093606;28;20184;-61
2022/07/04 00:51:32;;;;;;;61.60;34.03;;;20.20;99.90;;;;;;5111975;28;20648;-61
2022/07/04 00:53:59;;;;;;;56.58;34.78;;;20.20;99.90;;;;;;5111511;28;20618;-61
2022/07/04 00:56:26;;;;;;;58.90;34.75;;;20.10;99.90;;;;;;5093473;28;20181;-61
2022/07/04 00:58:53;;;;;;;52.08;33.38;;;20.10;99.90;;;;;;5111838;28;20203;-61
2022/07/04 01:01:22;;;;;;;61.42;35.30;;;20.10;99.90;;;;;;5111245;28;20185;-61
2022/07/04 01:03:49;;;;;;;58.97;34.85;;;20.10;99.90;;;;;;5111590;28;20267;-61
2022/07/04 01:06:16;;;;;;;64.57;33.92;;;20.10;99.90;;;;;;5093386;28;21027;-61
2022/07/04 01:08:42;;;;;;;58.13;35.22;;;20.10;99.90;;;;;;5111879;28;20338;-61
2022/07/04 01:11:09;;;;;;;56.20;33.40;;;20.10;99.90;;;;;;5111364;28;20180;-61
2022/07/04 01:13:35;;;;;;;62.58;33.97;;;20.10;99.90;;;;;;5093484;28;20227;-61
2022/07/04 01:16:01;;;;;;;64.32;35.60;;;20.00;99.90;;;;;;5111518;28;20180;-61
2022/07/04 01:18:27;;;;;;;55.25;33.15;;;20.00;99.90;;;;;;5115262;28;20243;-62
2022/07/04 01:20:53;;;;;;;63.60;34.88;;;20.00;99.90;;;;;;5115147;28;20641;-61
2022/07/04 01:23:19;;;;;;;61.13;34.53;;;20.00;99.90;;;;;;5115027;28;20176;-61
2022/07/04 01:25:45;;;;;;;57.53;34.53;;;20.10;99.90;;;;;;5114921;28;20199;-61
2022/07/04 01:28:11;;;;;;;61.97;35.28;;;20.10;99.90;;;;;;5079751;28;20232;-61
2022/07/04 01:30:37;;;;;;;62.65;34.53;;;20.10;99.90;;;;;;5115318;28;20582;-61
2022/07/04 01:33:04;;;;;;;57.65;33.50;;;20.10;99.90;;;;;;5114882;28;20629;-61
2022/07/04 01:35:30;;;;;;;57.78;33.42;;;20.10;99.90;;;;;;5115119;28;20605;-61
2022/07/04 01:37:57;;;;;;;57.90;34.08;;;20.20;99.90;;;;;;5114893;28;20200;-63
2022/07/04 01:40:23;;;;;;;65.40;34.50;;;20.20;99.90;;;;;;5096952;28;20192;-61
2022/07/04 01:42:49;;;;;;;59.72;34.63;;;20.20;99.90;;;;;;5096594;28;20181;-61
2022/07/04 01:45:14;;;;;;;57.65;33.88;;;20.10;99.90;;;;;;5114661;28;20206;-61
2022/07/04 01:47:41;;;;;;;62.30;36.33;;;20.00;99.90;;;;;;5096784;28;20594;-61
2022/07/04 01:50:09;;;;;;;61.58;36.40;;;20.00;99.90;;;;;;5114632;28;20180;-61
2022/07/04 01:52:35;;;;;;;62.17;35.20;;;20.00;99.90;;;;;;5114896;28;20196;-61
2022/07/04 01:55:01;;;;;;;57.38;35.45;;;20.00;99.90;;;;;;5114321;28;20709;-61
2022/07/04 01:57:27;;;;;;;67.30;35.85;;;19.90;99.90;;;;;;5096378;28;20185;-61
2022/07/04 02:02:37;;;;;;;64.22;35.50;;;20.00;99.90;;;;;;5114552;28;20195;-61
2022/07/04 02:05:04;;;;;;;63.88;34.85;;;20.00;99.90;;;;;;5114367;28;20180;-61
2022/07/04 02:07:30;;;;;;;54.05;33.53;;;20.00;99.90;;;;;;5096152;28;20245;-61
2022/07/04 02:09:56;;;;;;;59.38;35.80;;;20.00;99.90;;;;;;5114477;28;20621;-61
2022/07/04 02:15:06;;;;;;;60.90;35.35;;;19.80;99.90;;;;;;5114317;28;20602;-61
2022/07/04 02:17:33;;;;;;;64.13;36.03;;;19.60;99.90;;;;;;5114110;28;20204;-61
2022/07/04 02:19:59;;;;;;;59.58;35.60;;;19.60;99.90;;;;;;5114488;28;20216;-63
2022/07/04 02:22:25;;;;;;;75.57;38.20;;;19.60;99.90;;;;;;5096018;28;20231;-61
2022/07/04 02:24:50;;;;;;;76.50;36.67;;;19.50;99.90;;;;;;5114007;28;20177;-61
2022/07/04 02:27:16;;;;;;;65.97;35.38;;;19.50;99.90;;;;;;5094646;28;20224;-61
2022/07/04 02:29:42;;;;;;;64.82;36.67;;;19.40;99.90;;;;;;5114098;28;20172;-61
2022/07/04 02:32:08;;;;;;;72.72;37.50;;;19.30;99.90;;;;;;5078532;28;20173;-61
2022/07/04 02:34:34;;;;;;;62.35;36.42;;;19.30;99.90;;;;;;5114001;28;20180;-61
2022/07/04 02:37:00;;;;;;;65.28;36.58;;;19.20;99.90;;;;;;5113704;28;20225;-63
2022/07/04 02:39:26;;;;;;;63.85;38.00;;;19.30;99.90;;;;;;5113926;28;20291;-61
2022/07/04 02:41:51;;;;;;;74.82;39.17;;;19.30;99.90;;;;;;5095431;28;20545;-61
2022/07/04 02:44:17;;;;;;;66.85;38.80;;;19.30;99.90;;;;;;5078678;28;20759;-61
2022/07/04 02:46:43;;;;;;;69.00;38.58;;;19.30;99.90;;;;;;5095728;28;20192;-61
2022/07/04 02:49:09;;;;;;;68.28;39.42;;;19.20;99.90;;;;;;5095354;28;20541;-61
2022/07/04 02:51:35;;;;;;;66.25;39.53;;;19.20;99.90;;;;;;5113681;28;20237;-61
2022/07/04 02:54:00;;;;;;;82.68;41.88;;;19.20;99.90;;;;;;5094944;28;20180;-64
2022/07/04 02:56:26;;;;;;;71.07;39.95;;;19.30;99.90;;;;;;5113648;28;20636;-61
2022/07/04 02:58:53;;;;;;;78.93;42.38;;;19.40;99.90;;;;;;5113452;28;20214;-61
2022/07/04 03:01:19;;;;;;;71.47;39.88;;;19.40;99.90;;;;;;5094987;28;20188;-61
2022/07/04 03:03:46;;;;;;;77.05;40.25;;;19.50;99.90;;;;;;5095145;28;20227;-61
2022/07/04 03:06:12;;;;;;;75.28;39.05;;;19.50;99.90;;;;;;5094780;28;20204;-61
2022/07/04 03:08:38;;;;;;;72.10;38.97;;;19.60;99.90;;;;;;5094766;28;20184;-61
2022/07/04 03:11:05;;;;;;;75.45;38.90;;;19.70;99.90;;;;;;5094439;28;20187;-61
2022/07/04 03:13:32;;;;;;;71.82;39.58;;;19.70;99.90;;;;;;5094760;28;20180;-61
2022/07/04 03:15:58;;;;;;;74.15;38.90;;;19.80;99.90;;;;;;5094960;28;20187;-62
2022/07/04 03:18:24;;;;;;;74.32;39.17;;;19.90;99.90;;;;;;5094211;28;20216;-61
2022/07/04 03:20:50;;;;;;;65.55;36.35;;;19.90;99.90;;;;;;5112787;28;20213;-61
2022/07/04 03:23:16;;;;;;;70.10;37.40;;;20.00;99.90;;;;;;5112265;28;20180;-61
2022/07/04 03:25:42;;;;;;;60.63;37.08;;;20.10;99.90;;;;;;5112980;28;20184;-61
2022/07/04 03:28:08;;;;;;;64.28;36.83;;;20.30;99.90;;;;;;5093757;28;20692;-61
2022/07/04 03:30:35;;;;;;;60.78;34.85;;;20.50;99.90;;;;;;5112677;28;20184;-61
2022/07/04 03:33:00;;;;;;;59.10;34.55;;;20.60;99.90;;;;;;5112586;28;20617;-61
2022/07/04 03:35:26;;;;;;;74.18;37.05;;;20.70;99.90;;;;;;5093875;28;20208;-61
2022/07/04 03:37:53;;;;;;;66.45;35.85;;;20.70;99.90;;;;;;5112155;28;20207;-61
2022/07/04 03:40:20;;;;;;;63.10;35.47;;;20.90;99.90;;;;;;5111519;28;20185;-61
2022/07/04 03:42:46;;;;;;;63.67;36.13;;;20.80;99.90;;;;;;5112315;28;20210;-61
2022/07/04 03:45:12;;;;;;;59.55;36.08;;;20.90;99.90;;;;;;5093949;28;20188;-61
2022/07/04 03:47:38;;;;;;;57.85;33.33;;;21.10;99.90;;;;;;5111932;28;20266;-61
2022/07/04 03:50:04;;;;;;;58.42;34.00;;;21.30;99.90;;;;;;5111895;28;20176;-63
2022/07/04 03:52:30;;;;;;;54.45;32.25;;;21.50;99.90;;;;;;5111951;28;20259;-61
2022/07/04 03:54:56;;;;;;;53.97;31.88;;;21.60;99.90;;;;;;5093740;28;20309;-61
2022/07/04 03:57:22;;;;;;;57.10;33.30;;;21.70;99.90;;;;;;5111178;28;20188;-61
2022/07/04 03:59:48;;;;;;;53.08;31.70;;;21.70;99.90;;;;;;5094195;28;20192;-61
2022/07/04 04:02:14;;;;;;;56.35;31.70;;;21.80;99.90;;;;;;5093381;28;20183;-61
2022/07/04 04:07:24;;;;;;;61.08;35.72;;;21.90;99.90;;;;;;5111996;28;20214;-62
2022/07/04 04:09:50;;;;;;;58.67;35.55;;;21.80;99.90;;;;;;5076836;28;20184;-61
2022/07/04 04:12:15;;;;;;;63.22;36.35;;;21.70;99.90;;;;;;5111695;28;20597;-62
2022/07/04 04:14:41;;;;;;;63.53;38.45;;;21.70;99.90;;;;;;5111781;28;20180;-62
2022/07/04 04:17:07;;;;;;;64.53;38.70;;;21.70;99.90;;;;;;5111721;28;20169;-62
2022/07/04 04:19:33;;;;;;;66.43;38.22;;;21.70;99.90;;;;;;5092983;28;20258;-62
2022/07/04 04:21:59;;;;;;;72.90;38.28;;;21.70;99.90;;;;;;5093220;28;20561;-62
2022/07/04 04:24:24;;;;;;;63.75;38.28;;;21.80;99.90;;;;;;5111217;28;20187;-62
2022/07/04 04:26:50;;;;;;;58.67;37.63;;;21.90;99.90;;;;;;5093514;28;20177;-62
2022/07/04 04:29:16;;;;;;;63.97;37.20;;;21.90;99.90;;;;;;5088845;28;20296;-61
2022/07/04 04:31:42;;;;;;;60.00;37.20;;;22.00;99.90;;;;;;5090951;28;20623;-62
2022/07/04 04:34:08;;;;;;;58.10;35.72;;;22.00;99.90;;;;;;5091293;28;20177;-62
2022/07/04 04:36:33;;;;;;;64.53;36.63;;;22.00;99.90;;;;;;5069340;28;20253;-62
2022/07/04 04:38:59;;;;;;;69.18;38.83;;;22.00;99.90;;;;;;5070433;28;20209;-62
2022/07/04 04:41:25;;;;;;;59.70;34.03;;;22.10;99.90;;;;;;5069975;28;21137;-63
2022/07/04 04:43:51;;;;;;;49.55;32.13;;;22.10;99.90;;;;;;5052319;28;20596;-62
2022/07/04 04:46:17;;;;;;;49.75;32.28;;;22.20;99.90;;;;;;5068506;28;20173;-62
2022/07/04 04:48:43;;;;;;;55.90;31.73;;;22.20;99.90;;;;;;5070397;28;20182;-62
2022/07/04 04:51:08;;;;;;;48.72;30.85;;;22.40;99.90;;;;;;5071291;28;20182;-62
2022/07/04 04:53:34;;;;;;;49.58;31.25;;;22.40;99.90;;;;;;5074660;28;20184;-62
2022/07/04 04:56:00;;;;;;;48.13;30.88;;;22.50;99.90;;;;;;5072627;28;20182;-62
2022/07/04 04:58:26;;;;;;;52.35;31.38;;;22.60;99.90;;;;;;5073644;28;20321;-61
2022/07/04 05:00:52;;;;;;;47.95;30.52;;;22.70;99.90;;;;;;5072980;28;20193;-62
2022/07/04 05:03:18;;;;;;;50.42;30.15;;;22.60;99.90;;;;;;5087567;28;20240;-61
2022/07/04 05:05:44;;;;;;;53.38;30.35;;;22.70;99.90;;;;;;5090089;28;20239;-61
2022/07/04 05:08:12;;;;;;;46.58;30.17;;;22.90;99.90;;;;;;5074424;28;20495;-62
2022/07/04 05:10:38;;;;;;;45.83;28.67;;;22.90;99.90;;;;;;5074087;28;20180;-62
2022/07/04 05:13:04;;;;;;;61.20;29.70;;;23.00;99.90;;;;;;5074090;28;20672;-62
2022/07/04 05:15:30;;;;;;;46.35;28.13;;;23.10;99.90;;;;;;5073565;28;20185;-62
2022/07/04 05:17:56;;;;;;;46.65;30.98;;;23.20;99.90;;;;;;5088869;28;20225;-62
2022/07/04 05:20:21;;;;;;;50.25;28.63;;;23.30;99.90;;;;;;5074110;28;20648;-64
2022/07/04 05:22:47;;;;;;;50.60;30.20;;;23.30;99.90;;;;;;5073645;28;20634;-63
2022/07/04 05:25:13;;;;;;;51.03;29.58;;;23.40;99.90;;;;;;5073272;28;20622;-65
2022/07/04 05:27:39;;;;;;;47.28;26.67;;;23.40;99.90;;;;;;5079694;28;20232;-65
2022/07/04 05:30:06;;;;;;;50.20;27.05;;;23.30;99.90;;;;;;5075265;28;20581;-66
2022/07/04 05:32:32;;;;;;;42.40;26.30;;;23.30;99.90;;;;;;5093367;28;20173;-66
2022/07/04 05:34:58;;;;;;;40.78;25.70;;;23.30;99.90;;;;;;5082395;28;20187;-65
2022/07/04 05:37:24;;;;;;;37.20;24.77;;;23.40;99.90;;;;;;5113926;28;20184;-64
2022/07/04 05:39:49;;;;;;;43.17;26.40;;;23.40;99.90;;;;;;5095698;28;20195;-64
2022/07/04 05:42:25;;;;;;;48.80;26.75;;;23.40;99.90;;;;;;5077973;28;20180;-64
2022/07/04 05:44:51;;;;;;;49.22;26.55;;;23.40;99.90;;;;;;5079619;28;20496;-63
2022/07/04 05:47:31;;;;;;;45.28;27.48;;;23.40;99.90;;;;;;5095548;28;20263;-66
2022/07/04 05:49:58;;;;;;;42.15;27.10;;;23.40;99.90;;;;;;5096398;28;20267;-67
2022/07/04 05:52:23;;;;;;;42.03;26.92;;;23.30;99.90;;;;;;5113626;28;20233;-64
2022/07/04 05:54:49;;;;;;;44.33;27.83;;;23.50;99.90;;;;;;5095312;28;20629;-65
2022/07/04 05:57:15;;;;;;;44.97;26.80;;;23.60;99.90;;;;;;5074740;28;20197;-65
2022/07/04 05:59:41;;;;;;;46.67;27.30;;;23.70;99.90;;;;;;5070841;28;20231;-66
2022/07/04 06:02:07;;;;;;;42.60;25.73;;;23.70;99.90;;;;;;5089254;28;20643;-66
2022/07/04 06:04:33;;;;;;;37.10;24.67;;;23.70;99.90;;;;;;5077455;28;20632;-67
2022/07/04 06:06:58;;;;;;;48.97;26.42;;;23.90;99.90;;;;;;5113036;28;20216;-63
2022/07/04 06:09:24;;;;;;;39.15;25.83;;;24.00;99.90;;;;;;5094419;28;20211;-63
2022/07/04 06:11:50;;;;;;;42.05;26.55;;;24.20;99.90;;;;;;5113032;28;20196;-64
2022/07/04 06:14:15;;;;;;;45.15;26.05;;;24.40;99.90;;;;;;5112899;28;20184;-64
2022/07/04 06:16:41;;;;;;;40.65;24.23;;;24.40;99.90;;;;;;5094160;28;20186;-63
2022/07/04 06:19:07;;;;;;;38.17;24.17;;;24.40;99.90;;;;;;5112261;28;20212;-63
2022/07/04 06:21:33;;;;;;;40.38;24.40;;;24.50;99.90;;;;;;5094170;28;20253;-66
2022/07/04 06:23:58;;;;;;;38.65;24.67;;;24.70;99.90;;;;;;5111374;28;20188;-65
2022/07/04 06:26:24;;;;;;;44.72;25.27;;;24.80;99.90;;;;;;5111606;28;20192;-64
2022/07/04 06:28:50;;;;;;;37.47;22.10;;;24.80;99.90;;;;;;5094882;28;20247;-65
2022/07/04 06:31:16;;;;;;;34.78;22.33;;;24.80;99.90;;;;;;5090989;28;20188;-64
2022/07/04 06:36:26;;;;;;;28.88;18.95;;;24.90;99.90;;;;;;5096466;28;20203;-64
2022/07/04 06:38:52;;;;;;;31.50;20.58;;;25.10;99.90;;;;;;5112169;28;20201;-68
2022/07/04 06:41:18;;;;;;;37.95;23.30;;;25.00;99.90;;;;;;5112479;28;20207;-67
2022/07/04 06:43:43;;;;;;;32.80;20.85;;;25.10;99.90;;;;;;5094355;28;20279;-66
2022/07/04 06:46:09;;;;;;;35.67;18.50;;;25.30;99.90;;;;;;5076967;28;20283;-63
2022/07/04 06:48:36;;;;;;;29.73;18.35;;;25.30;99.90;;;;;;5093965;28;20265;-65
2022/07/04 06:51:02;;;;;;;36.83;20.35;;;25.40;99.90;;;;;;5106934;28;20187;-66
2022/07/04 06:53:28;;;;;;;39.97;20.02;;;25.40;99.90;;;;;;5093157;28;20532;-59
2022/07/04 06:55:53;;;;;;;34.03;20.30;;;25.60;99.90;;;;;;5111584;28;20195;-66
2022/07/04 06:58:19;;;;;;;23.65;16.20;;;25.50;99.90;;;;;;5112583;28;20219;-67
2022/07/04 07:00:45;;;;;;;31.05;17.98;;;25.50;99.90;;;;;;5093626;28;20184;-66
2022/07/04 07:03:11;;;;;;;25.13;15.60;;;25.60;99.90;;;;;;5111880;28;20192;-63
2022/07/04 07:05:37;;;;;;;32.70;16.77;;;25.80;99.90;;;;;;5112102;28;20215;-60
2022/07/04 07:08:04;;;;;;;20.52;15.20;;;25.80;99.90;;;;;;5093974;28;20184;-58
2022/07/04 07:10:32;;;;;;;20.60;14.10;;;25.90;99.90;;;;;;5076127;28;20283;-61
2022/07/04 07:12:59;;;;;;;23.00;14.23;;;25.90;99.90;;;;;;5111615;28;20200;-63
2022/07/04 07:15:24;;;;;;;31.48;18.15;;;26.00;99.90;;;;;;5111755;28;20184;-60
2022/07/04 07:17:50;;;;;;;18.17;13.45;;;26.00;99.90;;;;;;5091872;28;20215;-67
2022/07/04 07:20:16;;;;;;;17.17;12.15;;;26.20;99.90;;;;;;5093451;28;20196;-61
2022/07/04 07:22:42;;;;;;;19.40;13.57;;;26.30;99.90;;;;;;5111037;28;20180;-64
2022/07/04 07:25:10;;;;;;;22.02;13.43;;;26.50;99.90;;;;;;5112220;28;20176;-60
2022/07/04 07:27:36;;;;;;;20.67;14.85;;;26.50;99.90;;;;;;5110653;28;20719;-59
2022/07/04 07:30:04;;;;;;;41.05;16.90;;;26.60;99.90;;;;;;5111354;28;20210;-59
2022/07/04 07:32:30;;;;;;;28.02;16.45;;;26.80;99.90;;;;;;5111609;28;20176;-60
2022/07/04 07:34:56;;;;;;;22.50;15.15;;;26.90;99.90;;;;;;5111926;28;20237;-60
2022/07/04 07:37:22;;;;;;;21.08;15.10;;;27.00;99.90;;;;;;5112496;28;20681;-60
2022/07/04 07:39:48;;;;;;;23.40;16.17;;;27.20;99.90;;;;;;5112682;28;20672;-58
2022/07/04 07:42:15;;;;;;;22.98;16.40;;;27.00;99.90;;;;;;5112277;28;20263;-54
2022/07/04 07:44:40;;;;;;;29.15;16.98;;;27.20;99.90;;;;;;5093133;28;20184;-60
2022/07/04 07:47:07;;;;;;;33.83;18.58;;;27.30;99.90;;;;;;5111695;28;20328;-61
2022/07/04 07:49:33;;;;;;;31.65;19.55;;;27.40;99.90;;;;;;5090046;28;20203;-63
2022/07/04 07:51:58;;;;;;;34.42;19.67;;;27.60;99.90;;;;;;5091215;28;20260;-60
2022/07/04 07:54:24;;;;;;;33.70;19.20;;;27.80;99.90;;;;;;5090131;28;20193;-63
2022/07/04 07:56:50;;;;;;;25.13;18.73;;;27.90;99.90;;;;;;5098725;28;20184;-63
2022/07/04 07:59:16;;;;;;;32.60;17.88;;;27.90;99.90;;;;;;5110476;28;20276;-63
2022/07/04 08:01:41;;;;;;;32.78;19.92;;;28.20;99.90;;;;;;5095984;28;20196;-65
2022/07/04 08:06:52;;;;;;;30.05;18.55;;;28.70;99.90;;;;;;5095946;28;20230;-59
2022/07/04 08:09:17;;;;;;;29.35;17.83;;;28.80;99.90;;;;;;5111917;28;20255;-63
2022/07/04 08:11:43;;;;;;;25.60;16.23;;;28.70;99.90;;;;;;5110876;28;20629;-59
2022/07/04 08:14:09;;;;;;;25.02;16.83;;;28.80;99.90;;;;;;5111008;28;20176;-60
2022/07/04 08:16:35;;;;;;;31.70;17.45;;;28.90;99.90;;;;;;5110658;28;20224;-60
2022/07/04 08:19:02;;;;;;;27.67;17.65;;;28.90;99.90;;;;;;5109618;28;20203;-61
2022/07/04 08:21:28;;;;;;;26.13;16.67;;;29.00;99.90;;;;;;5111276;28;20183;-60
2022/07/04 08:23:54;;;;;;;24.23;16.45;;;29.30;99.90;;;;;;5111085;28;20173;-59
2022/07/04 08:26:20;;;;;;;29.02;17.35;;;29.40;99.40;;;;;;5110123;28;20188;-60
2022/07/04 08:28:45;;;;;;;31.23;17.40;;;29.30;99.60;;;;;;5111127;28;20574;-61
2022/07/04 08:31:11;;;;;;;26.20;16.48;;;29.50;99.40;;;;;;5110538;28;20184;-61
2022/07/04 08:33:37;;;;;;;22.17;15.82;;;29.50;99.20;;;;;;5110552;28;20208;-58
2022/07/04 08:36:04;;;;;;;30.30;15.73;;;29.60;98.50;;;;;;5111034;28;20640;-60
2022/07/04 08:38:30;;;;;;;23.88;16.25;;;29.60;98.30;;;;;;5111134;28;20204;-58
2022/07/04 08:41:03;;;;;;;24.77;15.63;;;29.30;98.70;;;;;;5111114;28;20175;-61
2022/07/04 08:43:33;;;;;;;28.27;16.25;;;29.60;99.40;;;;;;5110808;28;20550;-60
2022/07/04 08:46:00;;;;;;;25.95;15.73;;;30.20;98.50;;;;;;5110361;28;20633;-61
2022/07/04 08:48:28;;;;;;;21.92;15.07;;;30.30;97.30;;;;;;5111170;28;20177;-58
2022/07/04 08:51:05;;;;;;;23.42;15.75;;;30.40;97.10;;;;;;5111458;28;20172;-61
2022/07/04 08:53:33;;;;;;;27.90;16.42;;;30.70;96.70;;;;;;5110031;28;20229;-60
2022/07/04 08:58:45;;;;;;;24.60;15.02;;;29.90;96.50;;;;;;5110704;28;20858;-61
2022/07/04 09:01:15;;;;;;;19.55;14.60;;;29.70;97.70;;;;;;5110314;28;20188;-63
2022/07/04 09:03:42;;;;;;;21.00;15.57;;;29.60;97.60;;;;;;5110796;28;20297;-60
2022/07/04 09:06:08;;;;;;;25.10;15.65;;;29.40;97.80;;;;;;5110747;28;20756;-62
2022/07/04 09:08:34;;;;;;;23.45;14.75;;;29.50;98.10;;;;;;5110836;28;20180;-60
2022/07/04 09:11:02;;;;;;;40.35;17.65;;;29.60;98.10;;;;;;5111075;28;20256;-60
2022/07/04 09:13:29;;;;;;;30.20;16.10;;;29.60;97.90;;;;;;5110880;28;20184;-60
2022/07/04 09:15:55;;;;;;;32.03;15.93;;;29.70;97.90;;;;;;5092578;28;20518;-59
2022/07/04 09:18:42;;;;;;;22.23;15.93;;;29.60;97.90;;;;;;5108191;28;20260;-59
2022/07/04 09:21:09;;;;;;;27.85;17.13;;;29.70;97.60;;;;;;5092489;28;20271;-61
2022/07/04 09:23:40;;;;;;;24.60;14.85;;;29.70;97.40;;;;;;5075325;28;20218;-59
2022/07/04 09:26:14;;;;;;;24.65;14.50;;;29.80;96.70;;;;;;5110680;28;20184;-67
2022/07/04 09:28:45;;;;;;;25.88;13.50;;;29.80;96.60;;;;;;5110067;28;20234;-68
2022/07/04 09:31:26;;;;;;;27.10;14.18;;;30.10;96.50;;;;;;5091752;28;20177;-68
2022/07/04 09:33:57;;;;;;;21.45;13.27;;;30.40;95.80;;;;;;5110093;28;20181;-67
2022/07/04 09:36:25;;;;;;;23.02;12.27;;;30.70;95.30;;;;;;5110198;28;20231;-68
2022/07/04 09:39:36;;;;;;;26.05;12.15;;;30.90;94.40;;;;;;5095429;28;20395;-60
2022/07/04 09:42:03;;;;;;;20.65;12.00;;;31.20;94.30;;;;;;5051321;28;20232;-60
2022/07/04 09:44:34;;;;;;;17.77;11.40;;;31.30;93.70;;;;;;5017820;28;20206;-59
2022/07/04 09:47:24;;;;;;;21.95;12.65;;;31.60;93.00;;;;;;5085490;28;20612;-60
2022/07/04 09:50:05;;;;;;;19.23;11.90;;;31.80;92.50;;;;;;5114121;28;20173;-60
2022/07/04 09:52:32;;;;;;;25.02;14.15;;;31.60;92.30;;;;;;5113695;28;20184;-58
2022/07/04 09:55:00;;;;;;;19.83;14.00;;;31.30;93.10;;;;;;5113948;28;20637;-60
2022/07/04 09:57:26;;;;;;;23.75;15.32;;;31.30;93.50;;;;;;5113854;28;20241;-57
2022/07/04 09:59:51;;;;;;;25.58;15.43;;;31.10;93.80;;;;;;5114064;28;20676;-57
2022/07/04 10:02:17;;;;;;;34.13;17.70;;;31.00;94.00;;;;;;5114458;28;20247;-58
2022/07/04 10:04:49;;;;;;;28.10;13.50;;;31.20;93.80;;;;;;5113819;28;20701;-61
2022/07/04 10:07:33;;;;;;;27.60;12.95;;;31.20;92.70;;;;;;5113066;28;20207;-59
2022/07/04 10:09:59;;;;;;;19.05;12.10;;;31.00;92.70;;;;;;5113782;28;20194;-63
2022/07/04 10:12:26;;;;;;;19.13;11.35;;;31.00;92.70;;;;;;5113393;28;20252;-64
2022/07/04 10:14:55;;;;;;;18.70;11.73;;;31.00;92.30;;;;;;5113243;28;20289;-67
2022/07/04 10:17:21;;;;;;;15.48;11.18;;;31.00;91.60;;;;;;5111798;28;20176;-59
2022/07/04 10:19:50;;;;;;;22.88;12.18;;;31.30;91.40;;;;;;5112462;28;20238;-63
2022/07/04 10:22:18;;;;;;;16.25;11.40;;;31.60;91.40;;;;;;5112445;28;20535;-56
2022/07/04 10:24:44;;;;;;;17.83;11.30;;;31.10;90.90;;;;;;5094792;28;20188;-57
2022/07/04 10:27:10;;;;;;;27.05;12.65;;;30.90;91.70;;;;;;5113323;28;20655;-61
2022/07/04 10:29:37;;;;;;;25.00;12.15;;;31.20;91.50;;;;;;5112836;28;20205;-60
2022/07/04 10:32:03;;;;;;;16.88;10.20;;;31.70;91.00;;;;;;5112537;28;20184;-61
2022/07/04 10:34:29;;;;;;;17.48;11.10;;;32.30;88.60;;;;;;5112553;28;21712;-60
2022/07/04 10:36:54;;;;;;;19.10;10.68;;;32.30;87.60;;;;;;5077981;28;20188;-62
2022/07/04 10:39:24;;;;;;;19.55;11.25;;;32.30;88.70;;;;;;5112918;28;20235;-60
2022/07/04 10:42:01;;;;;;;19.83;10.88;;;32.20;86.30;;;;;;5112754;28;20188;-60
2022/07/04 10:44:34;;;;;;;16.13;10.88;;;32.00;86.60;;;;;;5112745;28;20607;-64
2022/07/04 10:47:00;;;;;;;18.42;10.07;;;31.90;87.60;;;;;;5113458;28;20180;-65
2022/07/04 10:49:28;;;;;;;25.38;12.38;;;31.70;86.70;;;;;;5112697;28;20211;-63
2022/07/04 10:52:14;;;;;;;19.67;12.10;;;31.50;87.50;;;;;;5112293;28;20180;-64
2022/07/04 10:54:42;;;;;;;18.25;11.20;;;31.70;87.90;;;;;;5112329;28;20196;-64
2022/07/04 10:57:23;;;;;;;19.90;11.63;;;32.00;87.50;;;;;;5112682;28;20180;-64
2022/07/04 10:59:59;;;;;;;15.73;11.05;;;32.70;85.90;;;;;;5111818;28;20255;-64
2022/07/04 11:02:30;;;;;;;14.90;9.82;;;33.40;84.40;;;;;;5112659;28;20174;-64
2022/07/04 11:05:00;;;;;;;20.35;10.70;;;33.70;81.30;;;;;;5112838;28;20203;-64
2022/07/04 11:07:35;;;;;;;19.55;9.90;;;33.60;80.80;;;;;;5112548;28;20566;-63
2022/07/04 11:10:13;;;;;;;18.85;11.00;;;33.50;79.50;;;;;;5112485;28;20179;-65
2022/07/04 11:12:56;;;;;;;25.58;11.32;;;33.30;79.80;;;;;;5112129;28;20263;-63
2022/07/04 11:15:28;;;;;;;22.45;10.50;;;33.20;79.70;;;;;;5112439;28;20582;-65
2022/07/04 11:18:01;;;;;;;17.27;9.05;;;33.00;81.30;;;;;;5110201;28;20192;-65
2022/07/04 11:20:31;;;;;;;20.52;10.48;;;33.10;79.00;;;;;;5094479;28;20184;-64
2022/07/04 11:23:06;;;;;;;14.57;9.23;;;33.50;79.40;;;;;;5112055;28;20251;-64
2022/07/04 11:25:33;;;;;;;21.67;9.45;;;34.20;76.00;;;;;;5112624;28;20656;-64
2022/07/04 11:28:24;;;;;;;15.13;8.70;;;34.10;74.60;;;;;;5075688;28;20252;-64
2022/07/04 11:30:55;;;;;;;19.63;9.55;;;34.80;73.90;;;;;;5111891;28;20623;-65
2022/07/04 11:33:23;;;;;;;24.02;9.98;;;36.50;70.50;;;;;;5111787;28;20221;-63
2022/07/04 11:36:09;;;;;;;11.05;8.48;;;37.80;68.20;;;;;;5093875;28;20198;-64
2022/07/04 11:39:03;;;;;;;16.88;8.52;;;39.40;60.70;;;;;;5111346;28;20238;-64
2022/07/04 11:47:21;;;;;;;12.98;8.00;;;41.90;47.40;;;;;;5112591;28;20248;-64
2022/07/04 11:49:51;;;;;;;10.98;6.53;;;41.70;47.80;;;;;;5111745;28;20187;-63
2022/07/04 11:52:22;;;;;;;12.55;7.70;;;42.70;45.20;;;;;;5111693;28;20183;-64
2022/07/04 11:54:49;;;;;;;16.33;7.53;;;41.90;45.00;;;;;;5094361;28;20176;-63
2022/07/04 11:57:25;;;;;;;15.55;8.05;;;42.50;45.10;;;;;;5111944;28;20179;-62
2022/07/04 12:00:05;;;;;;;10.60;7.43;;;43.40;43.70;;;;;;5109110;28;20207;-64
2022/07/04 12:02:32;;;;;;;12.63;6.75;;;43.60;42.40;;;;;;5111727;28;20175;-63
2022/07/04 12:05:00;;;;;;;13.50;7.18;;;43.20;41.70;;;;;;5111788;28;20266;-64
2022/07/04 12:07:27;;;;;;;3.25;2.20;;;42.50;41.40;;;;;;5109097;28;20572;-65
2022/07/04 12:09:54;;;;;;;0.00;0.00;;;40.60;43.00;;;;;;5103926;28;20236;-64
2022/07/04 12:12:21;;;;;;;1.23;1.02;;;38.80;43.70;;;;;;5098497;28;20276;-65
2022/07/04 12:15:08;;;;;;;1.77;0.95;;;37.80;46.30;;;;;;5091068;28;20507;-65
2022/07/04 12:17:35;;;;;;;0.47;0.40;;;38.10;47.00;;;;;;5081148;28;20236;-64
2022/07/04 12:20:03;;;;;;;0.10;0.10;;;39.80;41.40;;;;;;5110969;28;20184;-63
2022/07/04 12:22:32;;;;;;;2.60;2.17;;;40.70;40.60;;;;;;5111088;28;20527;-64
2022/07/04 12:24:59;;;;;;;0.00;0.00;;;41.50;39.40;;;;;;5104677;28;20203;-64
2022/07/04 12:27:26;;;;;;;1.73;1.48;;;41.80;38.70;;;;;;5107190;28;20286;-62
2022/07/04 12:29:53;;;;;;;8.20;3.85;;;43.00;38.00;;;;;;5110369;28;20195;-63
2022/07/04 12:32:21;;;;;;;7.28;2.75;;;42.60;38.20;;;;;;5109982;28;20200;-62
2022/07/04 12:34:46;;;;;;;4.35;2.13;;;41.90;36.80;;;;;;5110936;28;20195;-62
2022/07/04 12:37:14;;;;;;;0.10;0.10;;;41.60;37.80;;;;;;5110879;28;20630;-63
2022/07/04 12:39:44;;;;;;;1.55;1.38;;;42.20;38.20;;;;;;5110087;28;20275;-63
2022/07/04 12:42:19;;;;;;;1.45;1.15;;;43.50;38.10;;;;;;5100588;28;20184;-64
2022/07/04 12:44:49;;;;;;;0.10;0.10;;;44.00;34.90;;;;;;5110381;28;20206;-64
2022/07/04 12:47:15;;;;;;;0.47;0.43;;;44.50;34.10;;;;;;5093637;28;20211;-67
2022/07/04 12:49:46;;;;;;;0.10;0.10;;;44.30;33.30;;;;;;5110990;28;20179;-63
2022/07/04 12:52:16;;;;;;;0.40;0.40;;;45.00;32.90;;;;;;5110636;28;20262;-63